Time;durP1;ratioP1;P1;durP2;ratioP2;P2;SDS_P1;SDS_P2;PMS_P1;PMS_P2;Temp;Humidity;BMP_temperature;BMP_pressure;BME280_temperature;BME280_humidity;BME280_pressure;Samples;Min_cycle;Max_cycle;Signal;HPM_P1;HPM_P2
2021/03/21 00:01:32;;;;;;;0.73;0.65;;;;;12.70;102337.00;;;;5077886;28;20207;-78
2021/03/21 00:03:59;;;;;;;1.50;0.40;;;;;12.70;102340.00;;;;5076908;28;20218;-78
2021/03/21 00:06:26;;;;;;;0.63;0.35;;;;;12.60;102345.00;;;;5077310;28;20206;-78
2021/03/21 00:08:52;;;;;;;0.68;0.40;;;;;12.60;102341.00;;;;5074698;28;20199;-78
2021/03/21 00:11:21;;;;;;;1.27;0.60;;;;;12.60;102326.00;;;;5082533;28;20214;-78
2021/03/21 00:13:49;;;;;;;0.80;0.40;;;;;12.60;102326.00;;;;5082766;28;20202;-78
2021/03/21 00:16:17;;;;;;;1.00;0.60;;;;;12.60;102323.00;;;;5075888;28;20217;-78
2021/03/21 00:18:44;;;;;;;0.93;0.50;;;;;12.60;102323.00;;;;5075112;28;20205;-78
2021/03/21 00:21:13;;;;;;;0.70;0.40;;;;;12.60;102327.00;;;;5076200;28;20240;-78
2021/03/21 00:23:41;;;;;;;0.63;0.45;;;;;12.60;102323.00;;;;5076690;28;20199;-78
2021/03/21 00:26:09;;;;;;;0.80;0.40;;;;;12.60;102309.00;;;;5077901;28;20202;-78
2021/03/21 00:28:37;;;;;;;0.88;0.68;;;;;12.60;102309.00;;;;5076435;28;20195;-78
2021/03/21 00:31:07;;;;;;;0.75;0.40;;;;;12.60;102316.00;;;;5074452;28;20214;-78
2021/03/21 00:33:37;;;;;;;0.43;0.25;;;;;12.60;102305.00;;;;5075824;28;20190;-78
2021/03/21 00:36:05;;;;;;;1.02;0.50;;;;;12.60;102310.00;;;;5077364;28;20215;-78
2021/03/21 00:38:34;;;;;;;1.98;0.45;;;;;12.60;102299.00;;;;5075356;28;20197;-78
2021/03/21 00:41:02;;;;;;;0.95;0.68;;;;;12.60;102301.00;;;;5074342;28;20213;-78
2021/03/21 00:43:29;;;;;;;1.30;0.40;;;;;12.60;102295.00;;;;5073891;28;20198;-78
2021/03/21 00:45:56;;;;;;;0.60;0.30;;;;;12.60;102314.00;;;;5072822;28;20197;-78
2021/03/21 00:48:27;;;;;;;0.70;0.50;;;;;12.60;102299.00;;;;5076029;28;20226;-78
2021/03/21 00:50:55;;;;;;;0.55;0.35;;;;;12.60;102298.00;;;;5073305;28;20194;-78
2021/03/21 00:53:22;;;;;;;0.40;0.32;;;;;12.60;102296.00;;;;5077348;28;20215;-78
2021/03/21 00:55:49;;;;;;;0.60;0.32;;;;;12.60;102283.00;;;;5075172;28;20191;-78
2021/03/21 00:58:17;;;;;;;1.30;0.40;;;;;12.60;102283.00;;;;5075563;28;20198;-78
2021/03/21 01:00:45;;;;;;;0.50;0.30;;;;;12.60;102289.00;;;;5074551;28;20194;-78
2021/03/21 01:03:12;;;;;;;0.30;0.25;;;;;12.60;102286.00;;;;5079020;28;20197;-78
2021/03/21 01:05:43;;;;;;;0.50;0.40;;;;;12.60;102278.00;;;;5075715;28;20213;-78
2021/03/21 01:08:19;;;;;;;0.55;0.32;;;;;12.50;102274.00;;;;5076225;28;20224;-78
2021/03/21 01:10:47;;;;;;;0.60;0.40;;;;;12.60;102277.00;;;;5079423;28;20217;-78
2021/03/21 01:13:14;;;;;;;1.05;0.65;;;;;12.60;102273.00;;;;5088108;28;20197;-78
2021/03/21 01:15:41;;;;;;;0.90;0.60;;;;;12.60;102275.00;;;;5090446;28;20199;-78
2021/03/21 01:18:14;;;;;;;1.23;0.57;;;;;12.60;102262.00;;;;5084922;28;20197;-78
2021/03/21 01:20:41;;;;;;;0.90;0.55;;;;;12.60;102248.00;;;;5091690;28;20299;-78
2021/03/21 01:23:08;;;;;;;0.82;0.70;;;;;12.60;102258.00;;;;5080300;28;22132;-78
2021/03/21 01:25:35;;;;;;;1.33;0.77;;;;;12.60;102251.00;;;;5079988;28;20212;-78
2021/03/21 01:28:02;;;;;;;0.98;0.80;;;;;12.50;102252.00;;;;5076386;28;20203;-78
2021/03/21 01:30:29;;;;;;;2.15;1.20;;;;;12.50;102248.00;;;;5079328;28;20548;-78
2021/03/21 01:32:56;;;;;;;0.88;0.63;;;;;12.50;102253.00;;;;5078436;28;20217;-79
2021/03/21 01:35:23;;;;;;;1.20;0.90;;;;;12.50;102249.00;;;;5081196;28;20617;-80
2021/03/21 01:37:51;;;;;;;1.25;1.05;;;;;12.50;102243.00;;;;5074726;28;20229;-78
2021/03/21 01:40:20;;;;;;;1.35;1.00;;;;;12.50;102239.00;;;;5093232;28;20201;-78
2021/03/21 01:42:48;;;;;;;1.60;1.17;;;;;12.50;102239.00;;;;5081950;28;20203;-78
2021/03/21 01:45:34;;;;;;;1.52;1.23;;;;;12.40;102231.00;;;;5089448;28;20190;-79
2021/03/21 01:48:05;;;;;;;1.35;1.10;;;;;12.50;102217.00;;;;5077725;28;20226;-78
2021/03/21 01:50:37;;;;;;;1.20;0.90;;;;;12.40;102223.00;;;;5094576;28;20194;-79
2021/03/21 01:53:05;;;;;;;1.10;1.00;;;;;12.40;102217.00;;;;5082586;28;20264;-78
2021/03/21 01:55:32;;;;;;;2.80;1.48;;;;;12.50;102210.00;;;;5076768;28;20206;-78
2021/03/21 01:57:59;;;;;;;3.20;1.55;;;;;12.50;102208.00;;;;5093441;28;20198;-79
2021/03/21 02:00:27;;;;;;;1.55;1.20;;;;;12.50;102211.00;;;;5091670;28;20242;-78
2021/03/21 02:02:55;;;;;;;2.88;1.60;;;;;12.40;102205.00;;;;5085150;28;20206;-79
2021/03/21 02:05:22;;;;;;;2.20;1.63;;;;;12.40;102202.00;;;;5081122;28;20206;-78
2021/03/21 02:08:11;;;;;;;2.10;1.42;;;;;12.30;102203.00;;;;5092480;28;20202;-78
2021/03/21 02:10:52;;;;;;;2.20;1.65;;;;;12.40;102209.00;;;;5092927;28;20683;-79
2021/03/21 02:13:24;;;;;;;1.38;1.25;;;;;12.40;102194.00;;;;5093428;28;20220;-78
2021/03/21 02:15:55;;;;;;;1.83;1.58;;;;;12.40;102191.00;;;;5083480;28;20655;-78
2021/03/21 02:18:33;;;;;;;2.25;1.80;;;;;12.30;102173.00;;;;5084272;28;20190;-78
2021/03/21 02:21:31;;;;;;;2.20;1.73;;;;;12.20;102174.00;;;;5091086;28;20194;-78
2021/03/21 02:24:40;;;;;;;2.80;2.03;;;;;12.20;102157.00;;;;5083922;28;20203;-78
2021/03/21 02:27:21;;;;;;;2.63;1.98;;;;;12.30;102157.00;;;;5074999;28;20690;-78
2021/03/21 02:29:54;;;;;;;2.83;1.95;;;;;12.30;102150.00;;;;5089920;28;20208;-78
2021/03/21 02:32:24;;;;;;;3.75;2.30;;;;;12.20;102146.00;;;;5081538;28;20219;-78
2021/03/21 02:35:02;;;;;;;3.28;2.13;;;;;12.20;102143.00;;;;5078981;28;20206;-78
2021/03/21 02:37:36;;;;;;;2.92;2.13;;;;;12.20;102143.00;;;;5088894;28;20558;-79
2021/03/21 02:40:25;;;;;;;4.55;2.75;;;;;12.20;102150.00;;;;5087979;28;20190;-78
2021/03/21 02:42:58;;;;;;;3.42;2.30;;;;;12.20;102145.00;;;;5090059;28;20203;-78
2021/03/21 02:45:29;;;;;;;2.72;2.38;;;;;12.20;102149.00;;;;5090513;28;20210;-78
2021/03/21 02:48:02;;;;;;;3.75;2.70;;;;;12.20;102144.00;;;;5071993;28;20230;-78
2021/03/21 02:50:31;;;;;;;3.90;2.60;;;;;12.20;102139.00;;;;5087714;28;20193;-78
2021/03/21 02:53:02;;;;;;;4.50;2.97;;;;;12.20;102141.00;;;;5088897;28;20252;-79
2021/03/21 02:55:32;;;;;;;3.47;2.58;;;;;12.20;102139.00;;;;5077175;28;20213;-79
2021/03/21 02:58:03;;;;;;;3.63;2.80;;;;;12.20;102143.00;;;;5078829;28;20296;-78
2021/03/21 03:00:35;;;;;;;3.90;2.45;;;;;12.20;102132.00;;;;5089463;28;20202;-78
2021/03/21 03:03:07;;;;;;;4.25;2.83;;;;;12.20;102140.00;;;;5074048;28;20292;-78
2021/03/21 03:05:38;;;;;;;4.03;2.85;;;;;12.30;102134.00;;;;5087271;28;20213;-78
2021/03/21 03:08:11;;;;;;;3.90;2.90;;;;;12.30;102139.00;;;;5089320;28;20201;-78
2021/03/21 03:10:43;;;;;;;5.10;3.25;;;;;12.30;102136.00;;;;5087881;28;20226;-78
2021/03/21 03:13:15;;;;;;;3.92;2.90;;;;;12.30;102134.00;;;;5089766;28;20226;-78
2021/03/21 03:15:43;;;;;;;3.95;2.70;;;;;12.40;102143.00;;;;5089373;28;20203;-78
2021/03/21 03:18:23;;;;;;;4.13;3.10;;;;;12.30;102138.00;;;;5079469;28;20198;-78
2021/03/21 03:20:55;;;;;;;4.32;2.85;;;;;12.30;102135.00;;;;5086952;28;20672;-78
2021/03/21 03:23:28;;;;;;;5.38;3.38;;;;;12.30;102139.00;;;;5089703;28;20206;-78
2021/03/21 03:26:01;;;;;;;4.78;3.33;;;;;12.30;102147.00;;;;5087294;28;20214;-79
2021/03/21 03:28:34;;;;;;;4.20;3.05;;;;;12.30;102136.00;;;;5077907;28;20722;-79
2021/03/21 03:31:08;;;;;;;5.03;3.03;;;;;12.40;102144.00;;;;5076555;28;20213;-78
2021/03/21 03:33:35;;;;;;;4.40;2.75;;;;;12.40;102147.00;;;;5075507;28;20626;-78
2021/03/21 03:36:04;;;;;;;4.35;3.00;;;;;12.40;102145.00;;;;5076694;28;20219;-78
2021/03/21 03:38:31;;;;;;;5.60;3.45;;;;;12.40;102151.00;;;;5071630;28;20200;-79
2021/03/21 03:41:08;;;;;;;4.30;3.00;;;;;12.40;102149.00;;;;5085959;28;20186;-79
2021/03/21 03:43:45;;;;;;;6.07;3.65;;;;;12.40;102152.00;;;;5076308;28;20190;-78
2021/03/21 03:46:17;;;;;;;5.10;3.33;;;;;12.40;102155.00;;;;5089095;28;20194;-78
2021/03/21 03:48:54;;;;;;;5.20;3.47;;;;;12.40;102156.00;;;;5085814;28;20696;-78
2021/03/21 03:51:31;;;;;;;3.85;2.80;;;;;12.40;102167.00;;;;5079957;28;20203;-78
2021/03/21 03:54:14;;;;;;;5.25;2.65;;;;;12.40;102168.00;;;;5079526;28;20194;-79
2021/03/21 03:56:49;;;;;;;4.82;3.05;;;;;12.40;102170.00;;;;5076370;28;20655;-78
2021/03/21 03:59:28;;;;;;;6.00;3.38;;;;;12.40;102173.00;;;;5079394;28;20194;-78
2021/03/21 04:02:03;;;;;;;4.63;3.22;;;;;12.40;102170.00;;;;5075289;28;20193;-78
2021/03/21 04:04:40;;;;;;;5.13;3.20;;;;;12.40;102170.00;;;;5082090;28;20201;-78
2021/03/21 04:07:13;;;;;;;4.20;3.25;;;;;12.40;102166.00;;;;5068977;28;20248;-79
2021/03/21 04:09:47;;;;;;;5.95;4.07;;;;;12.40;102159.00;;;;5069650;28;20222;-79
2021/03/21 04:12:17;;;;;;;6.47;4.10;;;;;12.40;102159.00;;;;5086727;28;20222;-79
2021/03/21 04:14:48;;;;;;;6.57;3.58;;;;;12.40;102160.00;;;;5070854;28;20195;-79
2021/03/21 04:17:20;;;;;;;5.72;3.78;;;;;12.40;102155.00;;;;5068839;28;20202;-79
2021/03/21 04:19:53;;;;;;;5.00;3.20;;;;;12.40;102162.00;;;;5085925;28;20610;-78
2021/03/21 04:22:24;;;;;;;5.03;3.53;;;;;12.40;102156.00;;;;5085510;28;20209;-79
2021/03/21 04:24:58;;;;;;;5.60;3.60;;;;;12.40;102155.00;;;;5083993;28;20190;-78
2021/03/21 04:27:26;;;;;;;5.80;3.53;;;;;12.50;102152.00;;;;5082816;28;20197;-79
2021/03/21 04:29:58;;;;;;;3.92;2.63;;;;;12.40;102147.00;;;;5087321;28;20244;-78
2021/03/21 04:32:40;;;;;;;6.10;3.10;;;;;12.40;102153.00;;;;5070728;28;20231;-78
2021/03/21 04:35:10;;;;;;;5.70;2.90;;;;;12.50;102148.00;;;;5071046;28;20211;-78
2021/03/21 04:37:42;;;;;;;5.68;2.80;;;;;12.50;102160.00;;;;5085212;28;20186;-78
2021/03/21 04:40:11;;;;;;;4.50;3.00;;;;;12.50;102162.00;;;;5086028;28;20263;-78
2021/03/21 04:42:46;;;;;;;4.97;3.17;;;;;12.50;102154.00;;;;5088199;28;20199;-78
2021/03/21 04:45:16;;;;;;;3.25;2.20;;;;;12.50;102155.00;;;;5086566;28;20201;-79
2021/03/21 04:47:50;;;;;;;4.90;2.60;;;;;12.50;102152.00;;;;5083469;28;20198;-79
2021/03/21 04:50:18;;;;;;;4.07;2.83;;;;;12.50;102155.00;;;;5087362;28;20194;-79
2021/03/21 04:52:51;;;;;;;4.82;3.05;;;;;12.50;102154.00;;;;5087613;28;20226;-78
2021/03/21 04:55:22;;;;;;;6.25;3.13;;;;;12.50;102161.00;;;;5079350;28;20259;-78
2021/03/21 04:57:57;;;;;;;3.35;2.50;;;;;12.50;102150.00;;;;5078436;28;20205;-79
2021/03/21 05:00:28;;;;;;;3.47;2.53;;;;;12.50;102147.00;;;;5072066;28;20226;-79
2021/03/21 05:03:03;;;;;;;7.25;2.83;;;;;12.60;102151.00;;;;5082601;28;21002;-79
2021/03/21 05:05:33;;;;;;;5.10;2.95;;;;;12.60;102153.00;;;;5082658;28;20189;-78
2021/03/21 05:08:05;;;;;;;4.07;2.28;;;;;12.60;102140.00;;;;5085710;28;20198;-78
2021/03/21 05:10:35;;;;;;;5.00;2.17;;;;;12.60;102130.00;;;;5078644;28;20198;-79
2021/03/21 05:13:06;;;;;;;5.00;2.13;;;;;12.60;102139.00;;;;5079275;28;20218;-79
2021/03/21 05:15:43;;;;;;;3.00;2.15;;;;;12.50;102149.00;;;;5081534;28;20224;-79
2021/03/21 05:18:25;;;;;;;4.97;2.15;;;;;12.50;102146.00;;;;5085794;28;20202;-79
2021/03/21 05:21:03;;;;;;;4.50;2.28;;;;;12.50;102144.00;;;;5067986;28;20202;-79
2021/03/21 05:23:38;;;;;;;3.47;1.65;;;;;12.50;102143.00;;;;5078188;28;20194;-79
2021/03/21 05:26:09;;;;;;;2.35;1.27;;;;;12.50;102143.00;;;;5083868;28;20193;-79
2021/03/21 05:28:53;;;;;;;2.45;1.42;;;;;12.50;102148.00;;;;5080091;28;20190;-78
2021/03/21 05:31:21;;;;;;;1.77;1.15;;;;;12.60;102152.00;;;;5081059;28;20194;-78
2021/03/21 05:33:49;;;;;;;4.88;1.40;;;;;12.60;102158.00;;;;5085680;28;20570;-78
2021/03/21 05:36:26;;;;;;;3.08;1.33;;;;;12.50;102159.00;;;;5078914;28;20218;-78
2021/03/21 05:38:56;;;;;;;4.50;1.00;;;;;12.60;102158.00;;;;5078562;28;20197;-79
2021/03/21 05:42:04;;;;;;;2.35;1.00;;;;;12.50;102166.00;;;;5088736;28;20206;-79
2021/03/21 05:44:55;;;;;;;3.97;1.30;;;;;12.50;102172.00;;;;5077727;28;20195;-79
2021/03/21 05:47:49;;;;;;;1.10;0.47;;;;;12.50;102167.00;;;;5086310;28;20702;-79
2021/03/21 05:51:08;;;;;;;4.28;1.05;;;;;12.50;102167.00;;;;5088015;28;20202;-78
2021/03/21 05:54:38;;;;;;;2.45;0.73;;;;;12.40;102161.00;;;;5081924;28;20237;-78
2021/03/21 05:57:50;;;;;;;3.55;0.50;;;;;12.40;102157.00;;;;5076542;28;20206;-78
2021/03/21 06:00:50;;;;;;;1.40;0.50;;;;;12.40;102157.00;;;;5052542;28;20206;-79
2021/03/21 06:03:36;;;;;;;1.88;0.90;;;;;12.40;102166.00;;;;5063380;28;20293;-78
2021/03/21 06:06:33;;;;;;;2.30;0.50;;;;;12.40;102175.00;;;;5084030;28;20209;-78
2021/03/21 06:09:17;;;;;;;0.75;0.35;;;;;12.50;102173.00;;;;5076708;28;20222;-78
2021/03/21 06:11:57;;;;;;;2.10;0.50;;;;;12.50;102176.00;;;;5085913;28;20267;-78
2021/03/21 06:14:54;;;;;;;2.80;0.45;;;;;12.50;102172.00;;;;5090550;28;20186;-79
2021/03/21 06:17:43;;;;;;;1.98;0.68;;;;;12.50;102184.00;;;;5078247;28;20198;-79
2021/03/21 06:20:24;;;;;;;2.10;0.60;;;;;12.50;102191.00;;;;5086949;28;20194;-79
2021/03/21 06:23:18;;;;;;;1.08;0.43;;;;;12.50;102189.00;;;;5076414;28;20218;-79
2021/03/21 06:25:53;;;;;;;1.10;0.60;;;;;12.50;102182.00;;;;5085462;28;20201;-80
2021/03/21 06:28:41;;;;;;;4.30;0.88;;;;;12.50;102180.00;;;;5083350;28;20205;-79
2021/03/21 06:31:42;;;;;;;1.77;0.40;;;;;12.60;102187.00;;;;5070731;28;20550;-76
2021/03/21 06:34:19;;;;;;;2.30;0.50;;;;;12.60;102187.00;;;;5080183;28;20206;-78
2021/03/21 06:36:51;;;;;;;3.47;1.02;;;;;12.60;102188.00;;;;5085865;28;20228;-77
2021/03/21 06:39:45;;;;;;;1.70;0.68;;;;;12.60;102199.00;;;;5088211;28;20194;-78
2021/03/21 06:42:40;;;;;;;3.38;0.50;;;;;12.60;102195.00;;;;5086854;28;20197;-78
2021/03/21 06:45:40;;;;;;;4.22;0.63;;;;;12.60;102204.00;;;;5085767;28;20198;-78
2021/03/21 06:48:28;;;;;;;1.83;0.43;;;;;12.60;102203.00;;;;5088967;28;20218;-77
2021/03/21 06:51:12;;;;;;;1.15;0.40;;;;;12.70;102195.00;;;;5087111;28;20240;-78
2021/03/21 06:53:46;;;;;;;1.60;0.28;;;;;12.70;102200.00;;;;5083857;28;20226;-78
2021/03/21 06:56:52;;;;;;;5.38;0.95;;;;;12.70;102187.00;;;;5080617;28;20195;-78
2021/03/21 06:59:55;;;;;;;1.98;0.43;;;;;12.70;102197.00;;;;5088117;28;20591;-78
2021/03/21 07:02:57;;;;;;;4.03;0.63;;;;;12.70;102195.00;;;;5082456;28;20205;-77
2021/03/21 07:05:59;;;;;;;6.30;1.60;;;;;12.70;102204.00;;;;5075810;28;20197;-77
2021/03/21 07:08:47;;;;;;;4.05;0.82;;;;;12.70;102203.00;;;;5072059;28;20197;-77
2021/03/21 07:11:50;;;;;;;0.90;0.40;;;;;12.70;102209.00;;;;5089290;28;20594;-77
2021/03/21 07:14:45;;;;;;;4.25;0.68;;;;;12.70;102218.00;;;;5026187;28;20200;-77
2021/03/21 07:17:40;;;;;;;2.35;0.47;;;;;12.70;102226.00;;;;5085078;28;21084;-77
2021/03/21 07:20:44;;;;;;;2.20;0.45;;;;;12.70;102235.00;;;;5087788;28;20225;-78
2021/03/21 07:23:50;;;;;;;1.88;0.30;;;;;12.70;102241.00;;;;5088241;28;20199;-77
2021/03/21 07:26:29;;;;;;;3.58;0.80;;;;;12.80;102247.00;;;;5083144;28;20190;-77
2021/03/21 07:29:36;;;;;;;1.95;0.40;;;;;12.70;102239.00;;;;5085468;28;20780;-77
2021/03/21 07:32:33;;;;;;;4.00;0.73;;;;;12.80;102232.00;;;;5083422;28;20222;-77
2021/03/21 07:35:22;;;;;;;2.85;0.60;;;;;12.80;102241.00;;;;5072492;28;20202;-78
2021/03/21 07:37:59;;;;;;;3.83;0.75;;;;;12.90;102232.00;;;;5085517;28;20793;-77
2021/03/21 07:40:34;;;;;;;4.20;0.80;;;;;13.00;102229.00;;;;5079536;28;20201;-78
2021/03/21 07:43:23;;;;;;;2.17;0.68;;;;;13.00;102223.00;;;;5084282;28;20190;-77
2021/03/21 07:46:12;;;;;;;3.35;0.35;;;;;13.00;102225.00;;;;5089060;28;20201;-78
2021/03/21 07:48:53;;;;;;;2.28;0.50;;;;;13.10;102233.00;;;;5089290;28;20227;-78
2021/03/21 07:51:35;;;;;;;1.92;0.50;;;;;13.10;102213.00;;;;5078709;28;20353;-77
2021/03/21 07:54:10;;;;;;;4.07;0.63;;;;;13.20;102215.00;;;;5090615;28;20202;-78
2021/03/21 07:56:43;;;;;;;4.47;0.43;;;;;13.20;102221.00;;;;5087943;28;20673;-78
2021/03/21 07:59:15;;;;;;;6.43;0.57;;;;;13.30;102214.00;;;;5088885;28;20194;-79
2021/03/21 08:01:43;;;;;;;7.15;1.08;;;;;13.30;102216.00;;;;5073096;28;20293;-78
2021/03/21 08:04:15;;;;;;;6.05;1.25;;;;;13.30;102229.00;;;;5074405;28;20207;-76
2021/03/21 08:06:43;;;;;;;4.28;0.82;;;;;13.40;102224.00;;;;5086671;28;20201;-78
2021/03/21 08:09:16;;;;;;;4.03;0.90;;;;;13.30;102230.00;;;;5076894;28;20206;-78
2021/03/21 08:11:49;;;;;;;3.90;0.90;;;;;13.30;102221.00;;;;5086484;28;20287;-77
2021/03/21 08:14:27;;;;;;;7.72;1.08;;;;;13.30;102221.00;;;;5087169;28;20201;-77
2021/03/21 08:16:58;;;;;;;4.13;0.68;;;;;13.40;102232.00;;;;5085851;28;20610;-77
2021/03/21 08:19:28;;;;;;;2.88;1.08;;;;;13.50;102240.00;;;;5084823;28;20202;-78
2021/03/21 08:21:56;;;;;;;4.22;0.70;;;;;13.50;102245.00;;;;5089359;28;20209;-79
2021/03/21 08:24:25;;;;;;;2.67;0.65;;;;;13.60;102248.00;;;;5089386;28;20226;-77
2021/03/21 08:26:52;;;;;;;5.95;1.13;;;;;13.60;102237.00;;;;5081107;28;20198;-76
2021/03/21 08:29:21;;;;;;;4.10;1.15;;;;;13.60;102245.00;;;;5085724;28;20202;-77
2021/03/21 08:32:08;;;;;;;4.15;1.13;;;;;13.50;102242.00;;;;5083626;28;20564;-77
2021/03/21 08:34:39;;;;;;;4.60;1.10;;;;;13.60;102244.00;;;;5083991;28;20198;-76
2021/03/21 08:37:32;;;;;;;9.68;1.52;;;;;13.60;102239.00;;;;5086693;28;20198;-77
2021/03/21 08:40:11;;;;;;;5.70;1.65;;;;;13.60;102230.00;;;;5072271;28;20656;-79
2021/03/21 08:42:41;;;;;;;5.60;0.98;;;;;13.70;102241.00;;;;5085329;28;20380;-78
2021/03/21 08:45:32;;;;;;;6.80;1.60;;;;;13.60;102230.00;;;;5087489;28;20285;-79
2021/03/21 08:48:25;;;;;;;8.38;2.08;;;;;13.70;102230.00;;;;5084059;28;20232;-77
2021/03/21 08:50:53;;;;;;;8.55;1.70;;;;;13.70;102231.00;;;;5085427;28;20672;-79
2021/03/21 08:53:53;;;;;;;2.03;0.57;;;;;13.70;102245.00;;;;5087486;28;20228;-79
2021/03/21 08:56:22;;;;;;;4.65;1.27;;;;;13.80;102259.00;;;;5071083;28;20264;-79
2021/03/21 08:58:51;;;;;;;6.53;1.20;;;;;13.80;102251.00;;;;5087539;28;20198;-80
2021/03/21 09:01:21;;;;;;;7.20;1.15;;;;;13.80;102245.00;;;;5077184;28;20187;-79
2021/03/21 09:03:50;;;;;;;5.25;1.50;;;;;13.80;102255.00;;;;5088675;28;20236;-80
2021/03/21 09:06:33;;;;;;;8.70;1.77;;;;;13.80;102267.00;;;;5088666;28;20676;-80
2021/03/21 09:09:20;;;;;;;8.75;1.92;;;;;13.80;102264.00;;;;5081908;28;20204;-79
2021/03/21 09:11:49;;;;;;;6.70;1.80;;;;;13.80;102267.00;;;;5085658;28;20220;-78
2021/03/21 09:14:22;;;;;;;4.15;1.42;;;;;13.80;102277.00;;;;5089092;28;20267;-78
2021/03/21 09:17:00;;;;;;;8.85;1.70;;;;;13.80;102277.00;;;;5088265;28;20239;-78
2021/03/21 09:19:31;;;;;;;4.22;1.30;;;;;13.80;102270.00;;;;5088722;28;20201;-79
2021/03/21 09:21:59;;;;;;;6.60;1.42;;;;;13.80;102275.00;;;;5088307;28;20550;-79
2021/03/21 09:24:29;;;;;;;8.43;1.75;;;;;13.80;102263.00;;;;5082721;28;20213;-79
2021/03/21 09:27:16;;;;;;;6.22;1.17;;;;;13.80;102271.00;;;;5091964;28;20202;-80
2021/03/21 09:29:45;;;;;;;4.90;1.35;;;;;13.90;102258.00;;;;5076877;28;20182;-79
2021/03/21 09:32:23;;;;;;;3.97;0.98;;;;;13.90;102269.00;;;;5091994;28;20226;-78
2021/03/21 09:35:29;;;;;;;9.13;1.45;;;;;13.90;102273.00;;;;5089233;28;20218;-79
2021/03/21 09:37:59;;;;;;;10.60;1.90;;;;;14.10;102287.00;;;;5092005;28;20815;-79
2021/03/21 09:40:29;;;;;;;11.15;1.98;;;;;14.10;102293.00;;;;5088255;28;20201;-79
2021/03/21 09:42:56;;;;;;;6.03;1.85;;;;;14.10;102303.00;;;;5091883;28;20205;-77
2021/03/21 09:45:23;;;;;;;10.48;1.58;;;;;14.20;102286.00;;;;5087381;28;20206;-78
2021/03/21 09:47:56;;;;;;;5.75;1.38;;;;;14.20;102297.00;;;;5088898;28;20238;-77
2021/03/21 09:50:53;;;;;;;7.78;1.20;;;;;14.10;102286.00;;;;5091106;28;20222;-79
2021/03/21 09:53:41;;;;;;;3.35;1.17;;;;;14.10;102290.00;;;;5082475;28;20218;-77
2021/03/21 09:56:19;;;;;;;7.97;1.77;;;;;14.10;102294.00;;;;5084162;28;20297;-77
2021/03/21 09:58:50;;;;;;;5.25;1.05;;;;;14.20;102302.00;;;;5086275;28;20206;-77
2021/03/21 10:01:26;;;;;;;3.97;1.17;;;;;14.20;102304.00;;;;5090945;28;20193;-77
2021/03/21 10:04:12;;;;;;;4.93;0.98;;;;;14.30;102311.00;;;;5088049;28;20202;-77
2021/03/21 10:06:41;;;;;;;7.90;1.77;;;;;14.30;102316.00;;;;5089609;28;20205;-78
2021/03/21 10:09:13;;;;;;;11.20;1.98;;;;;14.30;102320.00;;;;5080122;28;20209;-77
2021/03/21 10:11:43;;;;;;;4.75;1.40;;;;;14.30;102335.00;;;;5089941;28;20209;-77
2021/03/21 10:14:46;;;;;;;6.13;1.88;;;;;14.20;102343.00;;;;5091086;28;20208;-79
2021/03/21 10:17:48;;;;;;;8.15;1.85;;;;;14.20;102332.00;;;;5079329;28;20201;-78
2021/03/21 10:20:18;;;;;;;8.70;1.45;;;;;14.40;102330.00;;;;5087816;28;20198;-78
2021/03/21 10:22:58;;;;;;;4.25;1.45;;;;;14.40;102326.00;;;;5088286;28;20195;-80
2021/03/21 10:26:03;;;;;;;9.23;1.35;;;;;14.40;102324.00;;;;5090737;28;20201;-81
2021/03/21 10:28:33;;;;;;;7.78;1.13;;;;;14.60;102332.00;;;;5090978;28;20197;-83
2021/03/21 10:31:39;;;;;;;6.47;1.80;;;;;14.60;102324.00;;;;5088160;28;20213;-81
2021/03/21 10:34:40;;;;;;;7.20;2.30;;;;;14.50;102333.00;;;;5085245;28;20310;-80
2021/03/21 10:37:10;;;;;;;6.60;1.65;;;;;14.60;102332.00;;;;5027371;28;20192;-81
2021/03/21 10:40:00;;;;;;;11.55;1.85;;;;;14.60;102339.00;;;;5075124;28;20310;-81
2021/03/21 10:42:45;;;;;;;5.00;1.05;;;;;14.70;102349.00;;;;5081475;28;20198;-83
2021/03/21 10:45:15;;;;;;;5.90;1.73;;;;;14.80;102351.00;;;;5087533;28;20202;-82
2021/03/21 10:47:50;;;;;;;7.10;1.30;;;;;14.80;102357.00;;;;5078937;28;20195;-78
2021/03/21 10:50:47;;;;;;;8.05;1.60;;;;;14.80;102355.00;;;;5089915;28;20656;-80
2021/03/21 10:53:21;;;;;;;6.60;1.65;;;;;14.80;102357.00;;;;5083157;28;20210;-80
2021/03/21 10:56:07;;;;;;;9.07;2.00;;;;;14.80;102352.00;;;;5089476;28;20247;-80
2021/03/21 10:58:53;;;;;;;4.35;1.13;;;;;14.90;102343.00;;;;5089721;28;20246;-80
2021/03/21 11:01:38;;;;;;;6.55;1.35;;;;;15.00;102349.00;;;;5090015;28;20190;-80
2021/03/21 11:04:19;;;;;;;5.55;1.48;;;;;15.00;102336.00;;;;5091147;28;20206;-80
2021/03/21 11:06:52;;;;;;;9.25;1.50;;;;;15.00;102337.00;;;;5090557;28;20229;-80
2021/03/21 11:09:24;;;;;;;9.20;1.88;;;;;15.00;102338.00;;;;5089534;28;20205;-80
2021/03/21 11:11:53;;;;;;;4.88;1.00;;;;;14.90;102334.00;;;;5090263;28;20251;-80
2021/03/21 11:14:22;;;;;;;6.40;1.50;;;;;14.90;102338.00;;;;5089512;28;20207;-79
2021/03/21 11:16:52;;;;;;;4.50;0.90;;;;;14.90;102342.00;;;;5075942;28;20575;-80
2021/03/21 11:19:20;;;;;;;10.13;1.80;;;;;14.90;102333.00;;;;5070089;28;20199;-79
2021/03/21 11:21:47;;;;;;;6.25;1.33;;;;;15.00;102343.00;;;;5069942;28;20228;-79
2021/03/21 11:24:22;;;;;;;6.72;1.85;;;;;15.00;102343.00;;;;5069536;28;20500;-79
2021/03/21 11:26:49;;;;;;;11.05;1.60;;;;;15.00;102336.00;;;;5080098;28;20699;-79
2021/03/21 11:29:27;;;;;;;9.20;2.08;;;;;15.00;102336.00;;;;5088358;28;20247;-79
2021/03/21 11:31:59;;;;;;;6.80;1.35;;;;;15.10;102326.00;;;;5086658;28;20202;-78
2021/03/21 11:34:29;;;;;;;6.78;1.83;;;;;15.10;102328.00;;;;5089098;28;20202;-78
2021/03/21 11:37:02;;;;;;;8.35;1.42;;;;;15.00;102330.00;;;;5088790;28;20380;-78
2021/03/21 11:39:34;;;;;;;6.97;1.92;;;;;15.00;102333.00;;;;5089816;28;20202;-78
2021/03/21 11:42:01;;;;;;;7.43;1.85;;;;;15.10;102326.00;;;;5089545;28;20202;-79
2021/03/21 11:44:30;;;;;;;9.65;2.20;;;;;15.10;102334.00;;;;5089192;28;20213;-78
2021/03/21 11:47:12;;;;;;;8.57;1.92;;;;;15.00;102338.00;;;;5070884;28;20214;-78
2021/03/21 11:49:39;;;;;;;7.63;1.40;;;;;15.10;102342.00;;;;5068644;28;20256;-78
2021/03/21 11:52:06;;;;;;;10.50;1.92;;;;;15.10;102345.00;;;;5068434;28;20211;-78
2021/03/21 11:54:35;;;;;;;3.17;1.30;;;;;15.10;102350.00;;;;5068703;28;20221;-79
2021/03/21 11:57:19;;;;;;;6.47;1.33;;;;;15.00;102354.00;;;;5068696;28;20661;-79
2021/03/21 11:59:53;;;;;;;5.43;1.60;;;;;15.00;102350.00;;;;5071018;28;20267;-78
2021/03/21 12:02:31;;;;;;;5.72;1.45;;;;;14.90;102351.00;;;;5070422;28;20644;-78
2021/03/21 12:05:02;;;;;;;8.80;2.17;;;;;14.90;102358.00;;;;5068434;28;20226;-78
2021/03/21 12:07:31;;;;;;;6.40;1.35;;;;;14.80;102355.00;;;;5069009;28;20202;-78
2021/03/21 12:09:59;;;;;;;9.43;1.90;;;;;14.80;102366.00;;;;5068744;28;20561;-78
2021/03/21 12:12:39;;;;;;;5.47;1.60;;;;;14.80;102347.00;;;;5069300;28;20227;-78
2021/03/21 12:15:15;;;;;;;8.60;1.35;;;;;14.70;102348.00;;;;5069012;28;20195;-78
2021/03/21 12:17:43;;;;;;;11.25;1.95;;;;;14.70;102355.00;;;;5078923;28;20197;-76
2021/03/21 12:20:46;;;;;;;6.95;1.90;;;;;14.50;102355.00;;;;5086671;28;20191;-78
2021/03/21 12:23:36;;;;;;;9.50;2.08;;;;;14.50;102346.00;;;;5089010;28;20190;-80
2021/03/21 12:26:22;;;;;;;12.02;1.60;;;;;14.50;102344.00;;;;5088007;28;20191;-80
2021/03/21 12:28:54;;;;;;;7.88;1.88;;;;;14.50;102341.00;;;;5087926;28;20209;-79
2021/03/21 12:31:27;;;;;;;7.93;1.77;;;;;14.50;102330.00;;;;5080488;28;20210;-79
2021/03/21 12:33:54;;;;;;;8.65;1.33;;;;;14.50;102328.00;;;;5086701;28;20234;-79
2021/03/21 12:36:27;;;;;;;9.15;1.90;;;;;14.50;102323.00;;;;5073714;28;20206;-78
2021/03/21 12:38:56;;;;;;;8.05;1.80;;;;;14.50;102324.00;;;;5075331;28;20195;-79
2021/03/21 12:41:40;;;;;;;8.50;1.77;;;;;14.50;102330.00;;;;5071855;28;20579;-79
2021/03/21 12:44:17;;;;;;;10.73;1.58;;;;;14.60;102338.00;;;;5086693;28;20235;-79
2021/03/21 12:46:47;;;;;;;16.17;2.67;;;;;14.60;102331.00;;;;5072276;28;20621;-80
2021/03/21 12:49:36;;;;;;;4.13;1.70;;;;;14.50;102333.00;;;;5087842;28;20225;-79
2021/03/21 12:52:06;;;;;;;3.80;1.00;;;;;14.60;102328.00;;;;5086004;28;20194;-79
2021/03/21 12:54:33;;;;;;;11.13;1.50;;;;;14.60;102332.00;;;;5075840;28;20191;-78
2021/03/21 12:56:59;;;;;;;8.40;2.22;;;;;14.60;102328.00;;;;5068594;28;20202;-78